Latest Weather Observations for Cato Island

IDQ60801

Issued at 11:13 pm EST Wednesday 25 May 2022 (issued every 10 minutes, with the page automatically refreshed every 10 minutes)

About weather observations | Map of weather stations | Latest weather observations for QLD | Other Formats
Station Details ID: 200601 Name: CATO ISLAND Lat: -23.25 Lon: 155.54 Height: 6.3 m
Data from the previous 72 hours. | See also: Recent months for locations in Queensland
Date/Time
EST
Temp
°C
App
Temp
°C
Dew
Point
°C
Rel
Hum
%
Delta-T
°C
Wind Press
QNH
hPa
Press
MSL
hPa
Rain since
9am
mm
Dir  Spd
km/h
Gust
km/h
Spd
kts
Gust
kts
25/11:00pm 23.3 - - - - ESE 39 44 21 24 1013.1 1013.0 -
25/10:30pm 23.1 - - - - ESE 43 50 23 27 1013.4 1013.3 -
25/10:00pm 23.3 - - - - ESE 43 50 23 27 1013.6 1013.5 -
25/09:30pm 22.9 - - - - ESE 37 43 20 23 1013.8 1013.7 -
25/09:00pm 22.8 - - - - ESE 43 52 23 28 1013.8 1013.7 -
25/08:30pm 23.3 - - - - SE 43 48 23 26 1013.9 1013.8 -
25/08:00pm 23.2 - - - - SE 41 46 22 25 1014.0 1013.9 -
25/07:30pm 23.3 - - - - ESE 41 46 22 25 1013.7 1013.6 -
25/07:00pm 23.2 - - - - ESE 43 48 23 26 1013.5 1013.4 -
25/06:30pm 23.2 - - - - ESE 44 50 24 27 1013.4 1013.3 -
25/06:00pm 23.3 - - - - ESE 43 48 23 26 1013.2 1013.1 -
25/05:30pm 23.3 - - - - ESE 43 50 23 27 1013.0 1012.9 -
25/05:00pm 23.3 - - - - ESE 41 46 22 25 1013.0 1012.9 -
25/04:30pm 23.3 - - - - ESE 43 50 23 27 1012.7 1012.6 -
25/04:00pm 23.4 - - - - SE 44 50 24 27 1012.2 1012.1 -
25/03:30pm 23.5 - - - - ESE 44 52 24 28 1011.9 1011.8 -
25/03:00pm 23.4 - - - - ESE 44 54 24 29 1012.0 1011.9 -
25/02:30pm 23.5 - - - - SE 44 52 24 28 1011.9 1011.8 -
25/02:00pm 23.5 - - - - SE 44 54 24 29 1012.0 1011.9 -
25/01:30pm 23.1 - - - - SE 43 50 23 27 1012.2 1012.1 -
25/01:00pm 23.3 - - - - ESE 43 48 23 26 1012.6 1012.5 -
25/12:30pm 23.0 - - - - ESE 46 59 25 32 1013.1 1013.0 -
25/12:00pm 23.5 - - - - ESE 44 50 24 27 1013.3 1013.2 -
25/11:30am 23.6 - - - - ESE 43 50 23 27 1013.6 1013.5 -
25/11:00am 23.7 - - - - ESE 41 46 22 25 1014.3 1014.2 -
25/10:30am 23.4 - - - - ESE 39 46 21 25 1015.1 1015.0 -
25/10:00am 23.3 - - - - ESE 35 41 19 22 1015.5 1015.4 -
25/09:30am 23.3 - - - - ESE 33 39 18 21 1015.7 1015.6 -
25/09:00am 23.3 - - - - ESE 35 41 19 22 1015.7 1015.6 -
25/08:30am 23.1 - - - - ESE 35 41 19 22 1015.4 1015.3 -
25/08:00am 23.0 - - - - ESE 35 44 19 24 1015.0 1014.9 -
25/07:30am 23.0 - - - - ESE 37 43 20 23 1014.8 1014.7 -
25/07:00am 22.7 - - - - SE 39 43 21 23 1014.6 1014.5 -
25/06:30am 22.7 - - - - SE 39 44 21 24 1014.4 1014.3 -
25/06:00am 22.7 - - - - ESE 33 41 18 22 1014.3 1014.2 -
25/05:30am 22.6 - - - - ESE 37 41 20 22 1013.8 1013.7 -
25/05:00am 22.8 - - - - ESE 41 46 22 25 1013.6 1013.5 -
25/04:30am 22.5 - - - - ESE 37 41 20 22 1013.5 1013.4 -
25/04:00am 22.3 - - - - ESE 43 50 23 27 1013.5 1013.4 -
25/03:30am 22.5 - - - - SE 41 50 22 27 1013.5 1013.4 -
25/03:00am 22.4 - - - - SE 43 48 23 26 1013.8 1013.7 -
25/02:30am 22.8 - - - - ESE 44 54 24 29 1013.5 1013.4 -
25/02:00am 22.2 - - - - ESE 46 54 25 29 1013.3 1013.2 -
25/01:30am 22.6 - - - - ESE 43 50 23 27 1013.8 1013.7 -
25/01:00am 22.7 - - - - ESE 37 44 20 24 1014.5 1014.4 -
25/12:30am 22.5 - - - - ESE 33 39 18 21 1014.9 1014.8 -
25/12:00am 22.8 - - - - ESE 35 39 19 21 1015.2 1015.1 -
 
Date/Time
EST
Temp
°C
App
Temp
°C
Dew
Point
°C
Rel
Hum
%
Delta-T
°C
Wind Press
QNH
hPa
Press
MSL
hPa
Rain since
9am
mm
Dir  Spd
km/h
Gust
km/h
Spd
kts
Gust
kts
24/11:30pm 22.6 - - - - ESE 37 43 20 23 1015.2 1015.1 -
24/11:00pm 22.7 - - - - ESE 41 46 22 25 1015.5 1015.4 -
24/10:30pm 22.6 - - - - ESE 39 46 21 25 1015.7 1015.6 -
24/10:00pm 22.7 - - - - ESE 39 46 21 25 1016.0 1015.9 -
24/09:30pm 22.5 - - - - ESE 43 54 23 29 1015.8 1015.7 -
24/09:00pm 22.7 - - - - ESE 43 50 23 27 1015.8 1015.7 -
24/08:30pm 22.8 - - - - ESE 44 50 24 27 1015.6 1015.5 -
24/08:00pm 22.7 - - - - ESE 41 48 22 26 1015.7 1015.6 -
24/07:30pm 22.5 - - - - ESE 44 52 24 28 1015.7 1015.6 -
24/07:00pm 22.6 - - - - ESE 41 48 22 26 1015.5 1015.4 -
24/06:30pm 22.6 - - - - E 48 59 26 32 1014.7 1014.6 -
24/06:00pm 22.8 - - - - ESE 52 57 28 31 1013.8 1013.7 -
24/05:30pm 22.6 - - - - ESE 48 57 26 31 1013.9 1013.8 -
24/05:00pm 22.2 - - - - ESE 46 56 25 30 1013.7 1013.6 -
24/04:30pm 22.1 - - - - ESE 57 65 31 35 1013.6 1013.5 -
24/04:00pm 21.7 - - - - SE 56 65 30 35 1013.4 1013.3 -
24/03:30pm 21.9 - - - - SE 48 56 26 30 1013.1 1013.0 -
24/03:00pm 21.6 - - - - SE 44 54 24 29 1013.1 1013.0 -
24/02:48pm 21.7 - - - - ESE 41 48 22 26 1013.2 1013.1 -
24/02:30pm 21.1 - - - - E 37 44 20 24 1013.4 1013.3 -
24/02:00pm 21.2 - - - - ESE 44 50 24 27 1013.1 1013.0 -
24/01:43pm 22.0 - - - - SE 35 46 19 25 1013.8 1013.7 -
24/01:30pm 22.3 - - - - SSE 24 30 13 16 1014.6 1014.5 -
24/01:22pm 22.3 - - - - SE 32 39 17 21 1014.3 1014.2 -
24/01:00pm 22.3 - - - - ESE 41 44 22 24 1013.9 1013.8 -
24/12:30pm 22.9 - - - - ESE 35 43 19 23 1014.2 1014.1 -
24/12:00pm 23.2 - - - - E 41 46 22 25 1014.4 1014.3 -
24/11:30am 23.1 - - - - E 44 52 24 28 1014.3 1014.2 -
24/11:00am 23.8 - - - - E 43 52 23 28 1014.5 1014.4 -
24/10:30am 23.8 - - - - E 46 56 25 30 1014.8 1014.7 -
24/10:00am 23.8 - - - - E 48 56 26 30 1014.6 1014.5 -
24/09:30am 23.6 - - - - E 50 57 27 31 1015.3 1015.2 -
24/09:00am 23.3 - - - - E 48 56 26 30 1015.4 1015.3 -
24/08:30am 23.3 - - - - E 52 63 28 34 1015.3 1015.2 -
24/08:00am 23.4 - - - - E 50 57 27 31 1014.9 1014.8 -
24/07:30am 23.1 - - - - E 54 63 29 34 1014.8 1014.7 -
24/07:00am 23.0 - - - - ENE 57 69 31 37 1014.5 1014.4 -
24/06:30am 23.0 - - - - E 57 67 31 36 1014.3 1014.2 -
24/06:00am 22.7 - - - - ENE 56 65 30 35 1014.2 1014.1 -
24/05:30am 23.1 - - - - E 56 70 30 38 1014.3 1014.2 -
24/05:00am 22.8 - - - - E 59 69 32 37 1014.3 1014.2 -
24/04:30am 22.8 - - - - E 61 70 33 38 1013.7 1013.6 -
24/04:00am 22.6 - - - - E 59 74 32 40 1014.0 1013.9 -
24/03:30am 22.4 - - - - E 61 72 33 39 1013.7 1013.6 -
24/03:00am 22.1 - - - - E 57 67 31 36 1013.6 1013.5 -
24/02:30am 22.0 - - - - E 61 70 33 38 1014.0 1013.9 -
24/02:25am 21.9 - - - - E 56 69 30 37 1014.2 1014.1 -
24/02:00am 21.8 - - - - ESE 44 50 24 27 1015.8 1015.7 -
24/01:30am 20.9 - - - - ESE 28 35 15 19 1016.6 1016.5 -
24/01:07am 20.7 - - - - ESE 39 46 21 25 1017.0 1016.9 -
24/01:00am 21.0 - - - - SE 39 46 21 25 1016.8 1016.7 -
24/12:30am 21.1 - - - - ESE 37 46 20 25 1016.8 1016.7 -
24/12:00am 22.1 - - - - SE 33 37 18 20 1017.1 1017.0 -
 
Date/Time
EST
Temp
°C
App
Temp
°C
Dew
Point
°C
Rel
Hum
%
Delta-T
°C
Wind Press
QNH
hPa
Press
MSL
hPa
Rain since
9am
mm
Dir  Spd
km/h
Gust
km/h
Spd
kts
Gust
kts
23/11:30pm 21.3 - - - - ESE 35 46 19 25 1016.7 1016.6 -
23/11:24pm 20.6 - - - - ESE 43 59 23 32 1016.8 1016.7 -
23/11:09pm 21.6 - - - - ESE 48 61 26 33 1016.8 1016.7 -
23/11:00pm 21.7 - - - - ESE 37 44 20 24 1016.6 1016.5 -
23/10:45pm 21.8 - - - - ESE 35 48 19 26 1016.7 1016.6 -
23/10:30pm 21.3 - - - - E 44 57 24 31 1017.0 1016.9 -
23/10:07pm 21.9 - - - - E 39 59 21 32 1016.7 1016.6 -
23/10:00pm 22.0 - - - - E 43 52 23 28 1016.6 1016.5 -
23/09:57pm 21.8 - - - - E 43 52 23 28 1016.6 1016.5 -
23/09:30pm 22.5 - - - - ESE 48 54 26 29 1016.1 1016.0 -
23/09:00pm 23.1 - - - - ESE 44 57 24 31 1016.5 1016.4 -
23/08:30pm 23.7 - - - - E 50 57 27 31 1016.2 1016.1 -
23/08:00pm 23.5 - - - - E 50 56 27 30 1016.2 1016.1 -
23/07:30pm 23.7 - - - - ESE 48 59 26 32 1016.0 1015.9 -
23/07:00pm 23.7 - - - - E 50 59 27 32 1016.0 1015.9 -
23/06:30pm 23.7 - - - - E 50 57 27 31 1015.7 1015.6 -
23/06:00pm 23.6 - - - - ESE 46 56 25 30 1015.5 1015.4 -
23/05:30pm 23.5 - - - - ESE 48 57 26 31 1015.0 1014.9 -
23/05:00pm 23.7 - - - - ESE 46 54 25 29 1015.0 1014.9 -
23/04:30pm 23.6 - - - - E 48 56 26 30 1014.5 1014.4 -
23/04:00pm 23.8 - - - - ESE 48 54 26 29 1014.4 1014.3 -
23/03:30pm 23.6 - - - - ESE 46 54 25 29 1014.2 1014.1 -
23/03:00pm 23.6 - - - - ESE 44 52 24 28 1014.3 1014.2 -
23/02:30pm 23.5 - - - - ESE 46 54 25 29 1014.3 1014.2 -
23/02:00pm 23.6 - - - - ESE 46 52 25 28 1014.4 1014.3 -
23/01:30pm 23.6 - - - - ESE 46 54 25 29 1014.4 1014.3 -
23/01:00pm 23.6 - - - - ESE 48 59 26 32 1014.4 1014.3 -
23/12:30pm 23.9 - - - - ESE 48 54 26 29 1014.6 1014.5 -
23/12:00pm 23.8 - - - - ESE 48 54 26 29 1015.1 1015.0 -
23/11:30am 23.9 - - - - ESE 46 54 25 29 1015.4 1015.3 -
23/11:00am 23.6 - - - - ESE 46 52 25 28 1016.1 1016.0 -
23/10:30am 22.7 - - - - ESE 41 52 22 28 1016.5 1016.4 -
23/10:19am 21.8 - - - - ESE 46 54 25 29 1016.7 1016.6 -
23/10:00am 21.7 - - - - E 43 50 23 27 1016.8 1016.7 -
23/09:30am 22.6 - - - - ESE 43 56 23 30 1016.9 1016.8 -
23/09:00am 23.2 - - - - ESE 39 46 21 25 1016.8 1016.7 -
23/08:30am 23.0 - - - - ESE 46 52 25 28 1016.5 1016.4 -
23/08:00am 22.6 - - - - ESE 44 50 24 27 1015.9 1015.8 -
23/07:30am 23.1 - - - - ESE 46 54 25 29 1015.4 1015.3 -
23/07:00am 23.0 - - - - ESE 44 52 24 28 1015.2 1015.1 -
23/06:30am 22.6 - - - - ESE 43 48 23 26 1015.1 1015.0 -
23/06:00am 22.4 - - - - ESE 39 43 21 23 1015.0 1014.9 -
23/05:30am 22.7 - - - - ESE 35 41 19 22 1014.6 1014.5 -
23/05:00am 22.3 - - - - ESE 33 35 18 19 1013.9 1013.8 -
23/04:30am 22.6 - - - - SE 35 43 19 23 1013.5 1013.4 -
23/04:00am 22.6 - - - - ESE 37 41 20 22 1013.4 1013.3 -
23/03:30am 22.8 - - - - SE 33 37 18 20 1013.4 1013.3 -
23/03:00am 22.3 - - - - SE 32 35 17 19 1013.6 1013.5 -
23/02:30am 23.0 - - - - ESE 24 28 13 15 1013.7 1013.6 -
23/02:00am 23.6 - - - - ESE 24 26 13 14 1013.9 1013.8 -
23/01:30am 23.6 - - - - ESE 26 28 14 15 1013.9 1013.8 -
23/01:00am 23.4 - - - - ESE 26 30 14 16 1013.9 1013.8 -
23/12:30am 23.4 - - - - ESE 24 30 13 16 1013.8 1013.7 -
23/12:00am 23.4 - - - - ESE 24 30 13 16 1013.8 1013.7 -
 
Date/Time
EST
Temp
°C
App
Temp
°C
Dew
Point
°C
Rel
Hum
%
Delta-T
°C
Wind Press
QNH
hPa
Press
MSL
hPa
Rain since
9am
mm
Dir  Spd
km/h
Gust
km/h
Spd
kts
Gust
kts
22/11:30pm 23.4 - - - - ESE 24 30 13 16 1014.0 1013.9 -

Other formats

Comma delimited format used in spreadsheet applications
http://www.bom.gov.au/fwo/IDQ60801/IDQ60801.94394.axf

JavaScript Object Notation format (JSON) in row-major order
http://www.bom.gov.au/fwo/IDQ60801/IDQ60801.94394.json

Data quality

Most of these data are generated automatically and are frequently updated. Quality checks on data are not normally performed. It is possible for incorrect values to appear. Refer to information at About Latest Weather Observations and please check the disclaimer before using these data.